createdAt,value
2023-05-09T00:00:52.841Z,87.50
2023-05-09T00:03:16.298Z,87.50
2023-05-09T00:05:39.819Z,87.70
2023-05-09T00:08:04.638Z,87.60
2023-05-09T00:10:29.169Z,87.70
2023-05-09T00:12:52.443Z,87.90
2023-05-09T00:15:16.064Z,88.00
2023-05-09T00:17:40.042Z,88.10
2023-05-09T00:20:05.185Z,88.10
2023-05-09T00:22:29.765Z,87.90
2023-05-09T00:24:54.850Z,88.10
2023-05-09T00:27:18.534Z,88.10
2023-05-09T00:29:41.890Z,88.30
2023-05-09T00:32:05.817Z,88.30
2023-05-09T00:34:29.131Z,88.20
2023-05-09T00:36:52.396Z,88.20
2023-05-09T00:39:15.644Z,88.10
2023-05-09T00:41:40.615Z,88.00
2023-05-09T00:44:03.936Z,88.10
2023-05-09T00:46:27.442Z,88.20
2023-05-09T00:48:52.378Z,88.30
2023-05-09T00:51:16.089Z,88.30
2023-05-09T00:53:39.573Z,88.60
2023-05-09T00:56:03.687Z,88.40
2023-05-09T00:58:28.906Z,88.40
2023-05-09T01:00:52.203Z,88.70
2023-05-09T01:03:15.940Z,88.90
2023-05-09T01:05:47.916Z,88.80
2023-05-09T01:08:20.629Z,88.70
2023-05-09T01:10:50.638Z,88.40
2023-05-09T01:13:24.325Z,88.50
2023-05-09T01:15:57.319Z,88.40
2023-05-09T01:18:31.030Z,88.40
2023-05-09T01:21:01.825Z,88.30
2023-05-09T01:24:14.684Z,88.50
2023-05-09T01:26:47.003Z,88.50
2023-05-09T01:29:42.327Z,88.90
2023-05-09T01:32:11.748Z,89.10
2023-05-09T01:34:36.584Z,89.20
2023-05-09T01:37:02.359Z,89.10
2023-05-09T01:39:26.634Z,89.00
2023-05-09T01:41:50.360Z,88.90
2023-05-09T01:44:15.067Z,89.20
2023-05-09T01:46:41.037Z,89.50
2023-05-09T01:49:05.030Z,89.40
2023-05-09T01:51:29.938Z,89.30
2023-05-09T01:53:55.619Z,89.10
2023-05-09T01:56:21.592Z,89.00
2023-05-09T01:58:48.238Z,88.90
2023-05-09T02:01:14.758Z,89.00
2023-05-09T02:03:40.534Z,89.20
2023-05-09T02:06:06.549Z,89.30
2023-05-09T02:08:30.469Z,89.00
2023-05-09T02:10:54.074Z,89.30
2023-05-09T02:13:17.559Z,89.50
2023-05-09T02:15:41.812Z,90.10
2023-05-09T02:18:05.541Z,90.10
2023-05-09T02:20:30.441Z,90.30
2023-05-09T02:22:53.804Z,90.30
2023-05-09T02:25:18.644Z,90.20
2023-05-09T02:27:44.450Z,90.10
2023-05-09T02:30:14.094Z,90.10
2023-05-09T02:32:40.136Z,90.10
2023-05-09T02:35:06.373Z,90.20
2023-05-09T02:37:31.805Z,90.10
2023-05-09T02:39:55.734Z,89.70
2023-05-09T02:42:25.168Z,89.80
2023-05-09T02:44:48.558Z,89.30
2023-05-09T02:47:12.374Z,89.20
2023-05-09T02:49:35.887Z,89.40
2023-05-09T02:52:01.423Z,89.40
2023-05-09T02:54:26.136Z,89.30
2023-05-09T02:56:49.415Z,89.40
2023-05-09T02:59:12.760Z,89.30
2023-05-09T03:01:36.086Z,89.40
2023-05-09T03:04:00.307Z,89.30
2023-05-09T03:06:23.611Z,89.30
2023-05-09T03:08:46.962Z,89.40
2023-05-09T03:11:11.687Z,89.30
2023-05-09T03:13:35.055Z,89.00
2023-05-09T03:15:58.323Z,88.70
2023-05-09T03:18:21.646Z,88.50
2023-05-09T03:20:44.898Z,88.60
2023-05-09T03:23:08.290Z,89.10
2023-05-09T03:25:31.561Z,89.40
2023-05-09T03:27:56.177Z,89.30
2023-05-09T03:30:20.403Z,89.30
2023-05-09T03:32:45.895Z,89.40
2023-05-09T03:35:09.896Z,89.20
2023-05-09T03:37:33.545Z,89.30
2023-05-09T03:39:56.902Z,89.30
2023-05-09T03:42:20.154Z,89.60
2023-05-09T03:44:48.948Z,89.90
2023-05-09T03:47:12.930Z,89.80
2023-05-09T03:49:36.887Z,89.70
2023-05-09T03:52:00.432Z,89.80
2023-05-09T03:54:23.830Z,89.80
2023-05-09T03:56:47.552Z,89.60
2023-05-09T03:59:10.874Z,89.50
2023-05-09T04:01:35.574Z,89.60
2023-05-09T04:04:00.173Z,89.80
2023-05-09T04:06:24.888Z,89.90
2023-05-09T04:08:48.155Z,90.10
2023-05-09T04:11:11.524Z,90.20
2023-05-09T04:13:38.061Z,90.10
2023-05-09T04:16:09.826Z,90.00
2023-05-09T04:18:34.654Z,89.90
2023-05-09T04:20:57.984Z,90.10
2023-05-09T04:23:21.365Z,89.90
2023-05-09T04:25:44.891Z,89.70
2023-05-09T04:28:08.337Z,89.70
2023-05-09T04:30:31.674Z,89.80
2023-05-09T04:32:55.814Z,89.70
2023-05-09T04:35:21.485Z,89.70
2023-05-09T04:37:46.491Z,89.80
2023-05-09T04:40:11.563Z,89.80
2023-05-09T04:42:44.107Z,89.70
2023-05-09T04:45:09.400Z,89.90
2023-05-09T04:47:33.025Z,90.10
2023-05-09T04:49:56.313Z,90.20
2023-05-09T04:52:20.949Z,90.20
2023-05-09T04:54:44.933Z,90.40
2023-05-09T04:57:17.749Z,90.30
2023-05-09T04:59:44.225Z,90.30
2023-05-09T05:02:10.427Z,90.40
2023-05-09T05:04:33.997Z,90.40
2023-05-09T05:06:57.664Z,90.40
2023-05-09T05:09:22.319Z,90.30
2023-05-09T05:11:58.370Z,90.00
2023-05-09T05:14:24.826Z,90.00
2023-05-09T05:16:48.150Z,89.80
2023-05-09T05:19:12.530Z,89.70
2023-05-09T05:21:37.764Z,89.40
2023-05-09T05:24:02.004Z,89.30
2023-05-09T05:26:26.834Z,89.00
2023-05-09T05:28:55.328Z,89.10
2023-05-09T05:31:18.836Z,88.90
2023-05-09T05:33:42.256Z,88.80
2023-05-09T05:36:06.275Z,88.60
2023-05-09T05:38:29.616Z,88.50
2023-05-09T05:40:54.169Z,88.20
2023-05-09T05:43:19.560Z,87.70
2023-05-09T05:45:42.940Z,87.60
2023-05-09T05:48:11.538Z,87.50
2023-05-09T05:50:36.677Z,87.70
2023-05-09T05:53:00.456Z,87.50
2023-05-09T05:55:23.941Z,87.30
2023-05-09T05:57:47.724Z,87.20
2023-05-09T06:00:15.494Z,87.30
2023-05-09T06:02:47.913Z,87.90
2023-05-09T06:05:18.970Z,87.80
2023-05-09T06:07:44.102Z,87.70
2023-05-09T06:10:09.378Z,88.10
2023-05-09T06:12:32.668Z,87.90
2023-05-09T06:14:56.034Z,87.40
2023-05-09T06:17:21.182Z,87.70
2023-05-09T06:19:44.463Z,87.50
2023-05-09T06:22:07.790Z,87.00
2023-05-09T06:24:35.613Z,86.50
2023-05-09T06:27:00.046Z,86.60
2023-05-09T06:29:23.289Z,86.10
2023-05-09T06:31:46.640Z,86.10
2023-05-09T06:34:11.294Z,86.10
2023-05-09T06:36:34.674Z,85.90
2023-05-09T06:38:57.968Z,86.20
2023-05-09T06:41:21.529Z,85.90
2023-05-09T06:43:44.869Z,85.90
2023-05-09T06:46:08.173Z,85.10
2023-05-09T06:48:31.662Z,85.10
2023-05-09T06:50:56.330Z,85.20
2023-05-09T06:53:19.673Z,85.00
2023-05-09T06:55:43.526Z,85.00
2023-05-09T06:58:06.977Z,85.30
2023-05-09T07:00:30.325Z,85.10
2023-05-09T07:02:53.715Z,85.10
2023-05-09T07:05:17.499Z,85.60
2023-05-09T07:07:42.249Z,85.90
2023-05-09T07:10:11.279Z,85.80
2023-05-09T07:12:35.885Z,85.00
2023-05-09T07:14:59.218Z,85.40
2023-05-09T07:17:24.121Z,85.80
2023-05-09T07:19:47.616Z,85.70
2023-05-09T07:22:10.922Z,85.90
2023-05-09T07:24:35.662Z,86.30
2023-05-09T07:26:58.876Z,85.00
2023-05-09T07:29:22.193Z,84.60
2023-05-09T07:31:45.706Z,84.80
2023-05-09T07:34:09.029Z,84.20
2023-05-09T07:36:34.818Z,84.90
2023-05-09T07:38:58.804Z,84.30
2023-05-09T07:41:23.582Z,84.40
2023-05-09T07:43:46.918Z,84.30
2023-05-09T07:46:10.228Z,84.10
2023-05-09T07:48:33.553Z,83.90
2023-05-09T07:50:56.838Z,83.70
2023-05-09T07:53:20.186Z,82.20
2023-05-09T07:55:44.659Z,81.60
2023-05-09T07:58:09.703Z,81.80
2023-05-09T08:00:33.083Z,81.70
2023-05-09T08:02:56.487Z,80.80
2023-05-09T08:05:20.072Z,80.80
2023-05-09T08:07:43.413Z,81.30
2023-05-09T08:10:08.419Z,79.90
2023-05-09T08:12:31.701Z,78.90
2023-05-09T08:14:56.327Z,78.80
2023-05-09T08:17:19.560Z,78.60
2023-05-09T08:19:42.851Z,75.60
2023-05-09T08:22:06.130Z,76.00
2023-05-09T08:24:29.914Z,75.60
2023-05-09T08:26:53.219Z,75.60
2023-05-09T08:29:17.654Z,77.30
2023-05-09T08:31:42.349Z,73.80
2023-05-09T08:34:05.695Z,72.20
2023-05-09T08:36:28.907Z,74.20
2023-05-09T08:38:52.888Z,73.80
2023-05-09T08:41:16.559Z,72.90
2023-05-09T08:43:41.680Z,72.00
2023-05-09T08:46:08.680Z,73.60
2023-05-09T08:48:37.522Z,73.20
2023-05-09T08:51:01.120Z,71.20
2023-05-09T08:53:24.634Z,70.90
2023-05-09T08:55:48.084Z,72.20
2023-05-09T08:58:11.783Z,71.80
2023-05-09T09:00:35.786Z,71.60
2023-05-09T09:03:04.002Z,70.90
2023-05-09T09:07:59.621Z,71.10
2023-05-09T09:10:25.803Z,70.00
2023-05-09T09:12:50.383Z,69.70
2023-05-09T09:15:19.518Z,69.60
2023-05-09T09:17:44.841Z,70.30
2023-05-09T09:20:13.596Z,70.00
2023-05-09T09:22:43.968Z,69.60
2023-05-09T09:25:07.801Z,67.00
2023-05-09T09:27:32.752Z,68.90
2023-05-09T09:29:56.079Z,71.30
2023-05-09T09:32:19.952Z,67.00
2023-05-09T09:37:24.420Z,67.70
2023-05-09T09:39:56.875Z,69.30
2023-05-09T09:42:20.383Z,67.90
2023-05-09T09:44:43.645Z,68.50
2023-05-09T09:47:11.939Z,68.50
2023-05-09T09:49:35.336Z,67.20
2023-05-09T09:51:59.875Z,67.80
2023-05-09T09:54:23.987Z,70.00
2023-05-09T09:56:50.417Z,66.90
2023-05-09T09:59:15.497Z,66.80
2023-05-09T10:01:56.831Z,68.00
2023-05-09T10:04:20.111Z,68.10
2023-05-09T10:06:54.181Z,68.50
2023-05-09T10:09:18.260Z,68.60
2023-05-09T10:11:42.044Z,66.20
2023-05-09T10:14:07.044Z,65.80
2023-05-09T10:16:42.658Z,66.40
2023-05-09T10:19:07.962Z,66.10
2023-05-09T10:21:31.773Z,66.70
2023-05-09T10:23:56.382Z,65.80
2023-05-09T10:26:27.427Z,65.10
2023-05-09T10:28:56.331Z,65.50
2023-05-09T10:31:27.357Z,65.30
2023-05-09T10:33:52.244Z,66.50
2023-05-09T10:36:20.464Z,66.80
2023-05-09T10:38:44.898Z,65.70
2023-05-09T10:41:10.261Z,65.30
2023-05-09T10:43:36.698Z,65.30
2023-05-09T10:46:00.314Z,66.50
2023-05-09T10:48:25.306Z,66.60
2023-05-09T10:50:49.502Z,65.60
2023-05-09T10:53:14.404Z,65.80
2023-05-09T10:55:39.961Z,66.40
2023-05-09T10:58:20.610Z,66.20
2023-05-09T11:00:44.340Z,63.40
2023-05-09T11:03:08.906Z,63.30
2023-05-09T11:05:40.546Z,64.10
2023-05-09T11:08:25.199Z,62.70
2023-05-09T11:10:49.565Z,64.50
2023-05-09T11:13:12.901Z,62.70
2023-05-09T11:15:38.057Z,63.20
2023-05-09T11:18:08.879Z,62.70
2023-05-09T11:20:36.011Z,64.10
2023-05-09T11:23:01.147Z,66.00
2023-05-09T11:25:28.415Z,65.00
2023-05-09T11:27:52.161Z,63.50
2023-05-09T11:30:18.261Z,65.60
2023-05-09T11:32:47.537Z,66.00
2023-05-09T11:35:14.943Z,65.40
2023-05-09T11:37:48.026Z,65.20
2023-05-09T11:40:14.553Z,64.80
2023-05-09T11:42:37.848Z,66.00
2023-05-09T11:45:01.134Z,66.60
2023-05-09T11:47:24.847Z,66.40
2023-05-09T11:49:49.466Z,65.90
2023-05-09T11:52:12.828Z,64.80
2023-05-09T11:54:40.200Z,66.60
2023-05-09T11:57:03.743Z,68.30
2023-05-09T11:59:27.298Z,70.80
2023-05-09T12:01:50.581Z,75.40
2023-05-09T12:04:13.980Z,78.60
2023-05-09T12:06:37.772Z,82.30
2023-05-09T12:09:01.168Z,83.10
2023-05-09T12:11:26.258Z,84.50
2023-05-09T12:13:52.238Z,84.30
2023-05-09T12:16:16.469Z,85.20
2023-05-09T12:18:39.821Z,85.10
2023-05-09T12:21:03.799Z,85.80
2023-05-09T12:23:27.105Z,86.40
2023-05-09T12:25:54.295Z,86.00
2023-05-09T12:28:19.530Z,84.90
2023-05-09T12:30:43.870Z,85.50
2023-05-09T12:33:10.373Z,85.80
2023-05-09T12:35:35.328Z,85.00
2023-05-09T12:38:00.105Z,86.10
2023-05-09T12:40:23.648Z,87.80
2023-05-09T12:42:47.235Z,88.80
2023-05-09T12:45:13.357Z,90.40
2023-05-09T12:47:38.774Z,90.60
2023-05-09T12:50:04.319Z,91.90
2023-05-09T12:52:34.577Z,91.60
2023-05-09T12:55:07.838Z,92.10
2023-05-09T12:57:31.677Z,91.90
2023-05-09T13:00:00.115Z,91.80
2023-05-09T13:02:27.057Z,91.40
2023-05-09T13:04:50.594Z,91.50
2023-05-09T13:07:13.893Z,91.70
2023-05-09T13:09:37.489Z,91.10
2023-05-09T13:12:01.096Z,91.60
2023-05-09T13:14:24.655Z,91.80
2023-05-09T13:16:47.958Z,91.90
2023-05-09T13:19:12.570Z,91.80
2023-05-09T13:21:37.060Z,90.40
2023-05-09T13:24:00.347Z,91.60
2023-05-09T13:26:23.867Z,91.10
2023-05-09T13:28:47.098Z,91.40
2023-05-09T13:31:10.685Z,91.50
2023-05-09T13:33:34.127Z,91.30
2023-05-09T13:35:58.854Z,90.90
2023-05-09T13:38:22.138Z,91.40
2023-05-09T13:40:45.392Z,91.10
2023-05-09T13:43:08.638Z,91.70
2023-05-09T13:45:31.946Z,91.30
2023-05-09T13:47:55.502Z,91.10
2023-05-09T13:50:19.065Z,90.80
2023-05-09T13:52:43.647Z,91.50
2023-05-09T13:55:07.932Z,91.30
2023-05-09T13:57:31.237Z,91.70
2023-05-09T13:59:54.510Z,92.30
2023-05-09T14:02:18.717Z,92.10
2023-05-09T14:04:42.945Z,91.40
2023-05-09T14:07:06.667Z,92.30
2023-05-09T14:09:31.321Z,92.00
2023-05-09T14:11:55.528Z,91.40
2023-05-09T14:14:18.999Z,91.80
2023-05-09T14:16:42.282Z,91.50
2023-05-09T14:19:07.054Z,91.50
2023-05-09T14:21:30.431Z,91.20
2023-05-09T14:23:53.705Z,91.40
2023-05-09T14:26:19.112Z,91.40
2023-05-09T14:28:42.550Z,92.10
2023-05-09T14:31:06.349Z,92.20
2023-05-09T14:33:29.663Z,92.10
2023-05-09T14:35:53.090Z,92.50
2023-05-09T14:38:16.440Z,92.70
2023-05-09T14:40:39.704Z,92.40
2023-05-09T14:43:04.337Z,92.30
2023-05-09T14:45:27.944Z,92.60
2023-05-09T14:47:51.395Z,92.70
2023-05-09T14:50:16.104Z,92.20
2023-05-09T14:52:39.489Z,92.60
2023-05-09T14:55:03.501Z,92.60
2023-05-09T14:57:26.911Z,92.90
2023-05-09T14:59:52.084Z,91.50
2023-05-09T15:02:15.245Z,91.40
2023-05-09T15:04:38.554Z,92.10
2023-05-09T15:07:01.841Z,92.30
2023-05-09T15:09:25.040Z,92.40
2023-05-09T15:11:49.269Z,92.10
2023-05-09T15:14:12.710Z,91.60
2023-05-09T15:16:37.425Z,92.10
2023-05-09T15:19:00.932Z,92.20
2023-05-09T15:21:24.293Z,92.30
2023-05-09T15:23:47.964Z,92.60
2023-05-09T15:26:12.330Z,92.60
2023-05-09T15:28:35.614Z,93.00
2023-05-09T15:30:59.977Z,93.20
2023-05-09T15:33:25.076Z,92.90
2023-05-09T15:35:50.124Z,92.80
2023-05-09T15:38:14.373Z,92.90
2023-05-09T15:40:37.603Z,92.90
2023-05-09T15:43:08.010Z,92.70
2023-05-09T15:45:33.975Z,92.40
2023-05-09T15:47:57.336Z,92.80
2023-05-09T15:50:22.234Z,92.90
2023-05-09T15:52:45.707Z,93.40
2023-05-09T15:55:12.805Z,92.90
2023-05-09T15:57:36.515Z,93.00
2023-05-09T15:59:59.840Z,93.20
2023-05-09T16:02:23.816Z,93.20
2023-05-09T16:04:47.368Z,92.80
2023-05-09T16:07:12.199Z,93.40
2023-05-09T16:09:35.452Z,93.30
2023-05-09T16:11:58.696Z,93.10
2023-05-09T16:14:22.138Z,92.80
2023-05-09T16:16:47.052Z,92.80
2023-05-09T16:19:10.727Z,92.30
2023-05-09T16:21:34.290Z,92.10
2023-05-09T16:24:00.151Z,92.40
2023-05-09T16:26:23.423Z,92.50
2023-05-09T16:28:46.704Z,92.40
2023-05-09T16:31:10.070Z,92.30
2023-05-09T16:33:33.879Z,92.40
2023-05-09T16:35:57.477Z,91.50
2023-05-09T16:38:20.701Z,91.80
2023-05-09T16:40:45.369Z,92.00
2023-05-09T16:43:08.696Z,92.00
2023-05-09T16:45:32.112Z,92.40
2023-05-09T16:47:58.454Z,92.50
2023-05-09T16:50:22.797Z,92.20
2023-05-09T16:52:46.033Z,91.50
2023-05-09T16:55:10.140Z,91.70
2023-05-09T16:57:34.896Z,91.90
2023-05-09T16:59:58.492Z,92.30
2023-05-09T17:02:21.835Z,92.00
2023-05-09T17:04:45.520Z,92.30
2023-05-09T17:07:08.791Z,92.20
2023-05-09T17:09:32.110Z,92.00
2023-05-09T17:11:55.567Z,92.20
2023-05-09T17:14:20.114Z,92.50
2023-05-09T17:16:43.477Z,92.40
2023-05-09T17:19:06.802Z,92.60
2023-05-09T17:21:30.798Z,92.60
2023-05-09T17:23:54.214Z,92.50
2023-05-09T17:26:17.516Z,92.50
2023-05-09T17:28:40.864Z,92.70
2023-05-09T17:31:05.757Z,92.90
2023-05-09T17:33:30.135Z,92.90
2023-05-09T17:35:53.467Z,92.90
2023-05-09T17:38:16.818Z,92.90
2023-05-09T17:40:40.650Z,93.20
2023-05-09T17:43:04.026Z,93.10
2023-05-09T17:45:27.311Z,93.10
2023-05-09T17:47:52.029Z,93.50
2023-05-09T17:50:17.220Z,93.60
2023-05-09T17:52:40.866Z,93.60
2023-05-09T17:55:05.786Z,93.30
2023-05-09T17:57:29.037Z,93.40
2023-05-09T17:59:52.434Z,93.40
2023-05-09T18:02:16.747Z,93.40
2023-05-09T18:04:41.493Z,93.20
2023-05-09T18:07:04.926Z,93.40
2023-05-09T18:09:28.262Z,93.80
2023-05-09T18:11:51.517Z,93.70
2023-05-09T18:14:15.160Z,93.40
2023-05-09T18:16:38.554Z,93.50
2023-05-09T18:19:02.826Z,93.70
2023-05-09T18:21:29.250Z,93.50
2023-05-09T18:23:52.749Z,93.70
2023-05-09T18:26:16.033Z,93.60
2023-05-09T18:28:40.151Z,93.70
2023-05-09T18:31:03.638Z,93.70
2023-05-09T18:33:29.012Z,93.70
2023-05-09T18:35:54.567Z,93.80
2023-05-09T18:38:19.277Z,93.90
2023-05-09T18:40:43.125Z,93.70
2023-05-09T18:43:07.912Z,93.90
2023-05-09T18:45:31.659Z,93.80
2023-05-09T18:47:54.910Z,94.00
2023-05-09T18:50:19.313Z,93.90
2023-05-09T18:52:44.323Z,93.70
2023-05-09T18:55:10.346Z,93.80
2023-05-09T18:57:33.867Z,93.80
2023-05-09T18:59:57.228Z,93.70
2023-05-09T19:02:20.708Z,93.90
2023-05-09T19:04:46.093Z,93.90
2023-05-09T19:07:10.119Z,94.10
2023-05-09T19:09:33.591Z,94.10
2023-05-09T19:11:59.592Z,94.20
2023-05-09T19:14:22.902Z,94.30
2023-05-09T19:16:46.256Z,94.30
2023-05-09T19:19:09.949Z,94.30
2023-05-09T19:21:34.239Z,94.20
2023-05-09T19:23:57.587Z,94.60
2023-05-09T19:26:21.955Z,94.50
2023-05-09T19:28:47.504Z,94.10
2023-05-09T19:31:10.890Z,93.90
2023-05-09T19:33:34.848Z,93.40
2023-05-09T19:35:58.133Z,93.20
2023-05-09T19:38:21.398Z,93.40
2023-05-09T19:40:44.747Z,93.40
2023-05-09T19:43:08.372Z,93.70
2023-05-09T19:45:33.443Z,93.80
2023-05-09T19:47:56.757Z,93.80
2023-05-09T19:50:20.493Z,93.90
2023-05-09T19:52:43.878Z,93.70
2023-05-09T19:55:08.346Z,93.90
2023-05-09T19:57:31.643Z,93.90
2023-05-09T19:59:55.668Z,94.00
2023-05-09T20:02:20.322Z,94.00
2023-05-09T20:04:49.604Z,94.20
2023-05-09T20:07:13.174Z,94.30
2023-05-09T20:09:36.681Z,94.30
2023-05-09T20:12:00.195Z,94.30
2023-05-09T20:14:23.815Z,94.50
2023-05-09T20:16:47.089Z,94.50
2023-05-09T20:19:14.534Z,94.60
2023-05-09T20:21:37.842Z,94.50
2023-05-09T20:24:01.178Z,94.60
2023-05-09T20:26:25.307Z,94.80
2023-05-09T20:28:48.656Z,94.40
2023-05-09T20:31:12.221Z,94.60
2023-05-09T20:33:35.534Z,94.50
2023-05-09T20:36:00.790Z,94.70
2023-05-09T20:38:24.013Z,94.60
2023-05-09T20:40:47.315Z,94.70
2023-05-09T20:43:10.520Z,94.80
2023-05-09T20:45:34.086Z,94.70
2023-05-09T20:47:57.530Z,94.70
2023-05-09T20:50:20.911Z,94.80
2023-05-09T20:52:45.639Z,94.80
2023-05-09T20:55:10.061Z,94.80
2023-05-09T20:57:33.355Z,95.00
2023-05-09T20:59:56.589Z,95.00
2023-05-09T21:02:19.923Z,94.90
2023-05-09T21:04:43.262Z,95.00
2023-05-09T21:07:06.731Z,94.90
2023-05-09T21:09:31.453Z,95.10
2023-05-09T21:11:54.697Z,94.90
2023-05-09T21:14:18.061Z,95.00
2023-05-09T21:16:43.713Z,95.00
2023-05-09T21:19:08.785Z,95.10
2023-05-09T21:21:32.947Z,95.00
2023-05-09T21:23:56.224Z,95.10
2023-05-09T21:26:22.795Z,95.10
2023-05-09T21:28:46.099Z,95.10
2023-05-09T21:31:11.278Z,95.20
2023-05-09T21:33:35.301Z,95.00
2023-05-09T21:35:59.234Z,95.10
2023-05-09T21:38:22.487Z,95.10
2023-05-09T21:40:45.667Z,95.10
2023-05-09T21:43:10.317Z,95.10
2023-05-09T21:45:34.031Z,95.20
2023-05-09T21:47:57.541Z,95.10
2023-05-09T21:50:21.104Z,95.20
2023-05-09T21:52:44.310Z,95.10
2023-05-09T21:55:07.846Z,95.10
2023-05-09T21:57:31.097Z,95.20
2023-05-09T21:59:56.248Z,95.10
2023-05-09T22:02:19.842Z,95.20
2023-05-09T22:04:43.185Z,95.20
2023-05-09T22:07:06.433Z,95.20
2023-05-09T22:09:29.839Z,95.20
2023-05-09T22:11:53.909Z,95.20
2023-05-09T22:14:17.220Z,95.30
2023-05-09T22:16:42.057Z,95.20
2023-05-09T22:19:05.516Z,95.30
2023-05-09T22:21:29.320Z,95.30
2023-05-09T22:23:53.564Z,95.20
2023-05-09T22:26:16.828Z,95.30
2023-05-09T22:28:40.186Z,95.40
2023-05-09T22:31:03.453Z,95.40
2023-05-09T22:33:28.100Z,95.40
2023-05-09T22:35:51.339Z,95.40
2023-05-09T22:38:14.617Z,95.50
2023-05-09T22:40:37.939Z,95.40
2023-05-09T22:43:01.170Z,95.40
2023-05-09T22:45:24.482Z,95.40
2023-05-09T22:47:47.802Z,95.40
2023-05-09T22:50:13.997Z,95.50
2023-05-09T22:52:37.362Z,95.50
2023-05-09T22:55:00.689Z,95.40
2023-05-09T22:57:23.928Z,95.30
2023-05-09T22:59:47.301Z,95.40
2023-05-09T23:02:10.643Z,95.30
2023-05-09T23:04:33.950Z,95.40
2023-05-09T23:06:58.610Z,95.40
2023-05-09T23:09:22.270Z,95.40
2023-05-09T23:11:45.487Z,95.40
2023-05-09T23:14:08.916Z,95.30
2023-05-09T23:16:32.278Z,95.40
2023-05-09T23:18:55.558Z,95.40
2023-05-09T23:21:18.835Z,95.50
2023-05-09T23:23:43.411Z,95.50
2023-05-09T23:26:06.620Z,95.50
2023-05-09T23:28:29.915Z,95.50
2023-05-09T23:30:54.142Z,95.60
2023-05-09T23:33:17.978Z,95.60
2023-05-09T23:35:41.280Z,95.50
2023-05-09T23:38:04.822Z,95.60
2023-05-09T23:40:29.466Z,95.50
2023-05-09T23:42:52.713Z,95.50
2023-05-09T23:45:16.273Z,95.60
2023-05-09T23:47:39.616Z,95.60
2023-05-09T23:50:03.049Z,95.60
2023-05-09T23:52:26.409Z,95.50
2023-05-09T23:54:49.709Z,95.50
2023-05-09T23:57:14.438Z,95.40
2023-05-09T23:59:37.882Z,95.30
